Amissville, Virginia
Current Conditions -  °F | °C
As of 5:15 PM on Sunday 23 Nov 2014 (Local Time) from KCJR Reporting Station
Overcast Overcast  
Wind Chill: 57°   Ceiling: 4300
Heat Index: 57°   Visibility: 10mi
Dew Point: 45°   Wind: 0mph
Humidity: 63%   Direction: NA
Pressure: 30.04"   Gusts: NA
Location:  38.67°N, 77.99°W
Report Text: KCJR 232215Z AUTO 00000KT 10SM OVC043 14/07 A3004 RMK AO2
Loading
Personal Weather Stations






























Interactive Weather Map New forecast layout! Learn more

10-Day Weather Forecast

Advertisements
Track Severe Weather on mobile